Time;durP1;ratioP1;P1;durP2;ratioP2;P2;SDS_P1;SDS_P2;PMS_P1;PMS_P2;Temp;Humidity;BMP_temperature;BMP_pressure;BME280_temperature;BME280_humidity;BME280_pressure;Samples;Min_cycle;Max_cycle;Signal;HPM_P1;HPM_P2
2023/09/25 00:00:34;;;;;;;;;3.67;3.67;;;;;16.90;100.00;101781.91;5074821;27;45440;-74
2023/09/25 00:03:00;;;;;;;;;4.67;4.67;;;;;16.91;100.00;101778.34;5072635;28;45984;-75
2023/09/25 00:05:28;;;;;;;;;5.00;3.00;;;;;16.87;100.00;101789.91;5067407;27;45350;-74
2023/09/25 00:07:53;;;;;;;;;9.00;5.00;;;;;16.82;100.00;101797.03;5075865;27;45496;-76
2023/09/25 00:10:18;;;;;;;;;5.00;4.00;;;;;16.77;100.00;101789.91;5073542;28;45489;-77
2023/09/25 00:12:44;;;;;;;;;6.00;5.00;;;;;16.76;100.00;101796.13;5074441;27;72218;-76
2023/09/25 00:15:10;;;;;;;;;5.33;5.33;;;;;16.75;100.00;101799.69;5070955;27;45491;-74
2023/09/25 00:17:36;;;;;;;;;8.00;6.33;;;;;16.71;100.00;101797.91;5074698;27;45355;-73
2023/09/25 00:20:04;;;;;;;;;6.00;4.00;;;;;16.70;100.00;101801.41;5073956;27;45670;-74
2023/09/25 00:22:30;;;;;;;;;3.00;3.00;;;;;16.69;100.00;101796.09;5073448;27;46811;-77
2023/09/25 00:24:57;;;;;;;;;4.67;3.33;;;;;16.68;100.00;101789.00;5072868;27;45366;-74
2023/09/25 00:27:23;;;;;;;;;4.00;3.67;;;;;16.70;100.00;101795.19;5071401;28;45515;-75
2023/09/25 00:29:48;;;;;;;;;5.67;4.00;;;;;16.72;100.00;101791.69;5070688;27;45560;-75
2023/09/25 00:32:14;;;;;;;;;4.67;4.67;;;;;16.73;100.00;101789.91;5074634;28;46217;-73
2023/09/25 00:34:40;;;;;;;;;3.00;2.67;;;;;16.73;100.00;101797.91;5067721;27;45741;-74
2023/09/25 00:37:05;;;;;;;;;4.00;4.00;;;;;16.73;100.00;101792.59;5067466;27;45432;-77
2023/09/25 00:39:30;;;;;;;;;4.00;4.00;;;;;16.75;100.00;101794.34;5071870;28;62469;-76
2023/09/25 00:41:56;;;;;;;;;3.00;3.00;;;;;16.75;100.00;101789.00;5071160;27;72168;-72
2023/09/25 00:44:22;;;;;;;;;4.00;2.33;;;;;16.75;100.00;101789.00;5069726;27;61437;-73
2023/09/25 00:46:48;;;;;;;;;4.00;2.00;;;;;16.75;100.00;101782.78;5073880;28;45515;-74
2023/09/25 00:49:13;;;;;;;;;5.00;3.00;;;;;16.76;100.00;101787.22;5074438;28;45321;-75
2023/09/25 00:51:38;;;;;;;;;2.67;1.00;;;;;16.75;100.00;101783.69;5075440;27;47644;-76
2023/09/25 00:54:04;;;;;;;;;3.00;3.00;;;;;16.72;100.00;101782.78;5074116;28;67992;-76
2023/09/25 00:56:29;;;;;;;;;2.67;2.67;;;;;16.68;100.00;101779.22;5073264;28;45450;-74
2023/09/25 00:58:55;;;;;;;;;3.00;3.00;;;;;16.66;100.00;101778.28;5069403;28;58154;-74
2023/09/25 01:01:20;;;;;;;;;3.67;3.67;;;;;16.66;100.00;101764.06;5070863;27;70946;-73
2023/09/25 01:03:46;;;;;;;;;4.67;4.00;;;;;16.65;100.00;101767.63;5066716;28;45480;-74
2023/09/25 01:06:11;;;;;;;;;5.00;4.00;;;;;16.64;100.00;101766.75;5069536;28;45521;-76
2023/09/25 01:08:37;;;;;;;;;4.00;4.00;;;;;16.65;100.00;101776.53;5073681;27;45291;-75
2023/09/25 01:11:03;;;;;;;;;4.00;4.00;;;;;16.64;100.00;101773.88;5068830;28;45495;-74
2023/09/25 01:13:28;;;;;;;;;3.67;3.67;;;;;16.65;100.00;101778.31;5067732;28;45865;-76
2023/09/25 01:15:54;;;;;;;;;5.33;4.00;;;;;16.64;100.00;101774.75;5070340;27;58629;-75
2023/09/25 01:18:19;;;;;;;;;4.00;4.00;;;;;16.62;100.00;101771.22;5075458;27;45485;-75
2023/09/25 01:20:45;;;;;;;;;4.00;4.00;;;;;16.63;100.00;101775.66;5065958;27;68956;-74
2023/09/25 01:23:10;;;;;;;;;7.33;3.00;;;;;16.60;100.00;101775.63;5074543;27;45402;-74
2023/09/25 01:25:35;;;;;;;;;4.67;3.33;;;;;16.58;100.00;101777.41;5076549;27;47660;-76
2023/09/25 01:28:01;;;;;;;;;4.33;4.33;;;;;16.59;100.00;101776.53;5073851;27;62773;-77
2023/09/25 01:30:28;;;;;;;;;4.33;3.33;;;;;16.57;100.00;101772.97;5077459;28;46641;-75
2023/09/25 01:32:53;;;;;;;;;4.00;4.00;;;;;16.57;100.00;101770.31;5073779;27;45430;-78
2023/09/25 01:35:22;;;;;;;;;3.33;3.33;;;;;16.56;100.00;101783.63;5077593;28;45354;-73
2023/09/25 01:37:48;;;;;;;;;5.00;3.00;;;;;16.55;100.00;101768.50;5078220;27;45440;-76
2023/09/25 01:40:14;;;;;;;;;5.00;3.67;;;;;16.50;100.00;101777.38;5067404;28;46626;-75
2023/09/25 01:42:40;;;;;;;;;4.00;4.00;;;;;16.44;100.00;101772.03;5071402;27;45548;-75
2023/09/25 01:45:08;;;;;;;;;3.00;3.00;;;;;16.52;100.00;101777.41;5077028;28;45557;-74
2023/09/25 01:47:34;;;;;;;;;4.00;2.33;;;;;16.52;100.00;101768.53;5073930;27;45548;-76
2023/09/25 01:49:59;;;;;;;;;5.00;4.00;;;;;16.51;100.00;101767.59;5076002;28;46696;-75
2023/09/25 01:52:27;;;;;;;;;6.00;4.00;;;;;16.46;100.00;101759.63;5073395;27;45414;-74
2023/09/25 01:54:52;;;;;;;;;3.00;3.00;;;;;16.44;100.00;101761.38;5078235;27;45427;-74
2023/09/25 01:57:18;;;;;;;;;3.33;3.33;;;;;16.44;100.00;101761.38;5075877;27;63777;-74
2023/09/25 01:59:43;;;;;;;;;7.33;4.67;;;;;16.39;100.00;101762.25;5077970;27;46348;-74
2023/09/25 02:02:08;;;;;;;;;3.50;3.00;;;;;16.38;100.00;101764.03;5076362;27;66875;-74
2023/09/25 02:04:34;;;;;;;;;4.00;2.00;;;;;16.37;100.00;101766.72;5071019;27;63968;-73
2023/09/25 02:06:59;;;;;;;;;5.00;4.00;;;;;16.33;100.00;101759.59;5071188;28;57758;-75
2023/09/25 02:09:24;;;;;;;;;3.00;3.00;;;;;16.34;100.00;101766.69;5070291;27;67075;-74
2023/09/25 02:11:50;;;;;;;;;3.00;3.00;;;;;16.35;100.00;101761.38;5072275;28;68507;-75
2023/09/25 02:14:15;;;;;;;;;3.00;3.00;;;;;16.34;100.00;101751.59;5072964;27;65384;-73
2023/09/25 02:16:41;;;;;;;;;3.00;3.00;;;;;16.35;100.00;101752.47;5074994;27;61156;-74
2023/09/25 02:19:06;;;;;;;;;3.67;2.67;;;;;16.32;100.00;101755.16;5072684;28;45865;-75
2023/09/25 02:21:31;;;;;;;;;3.33;3.00;;;;;16.27;100.00;101765.81;5076374;27;64868;-75
2023/09/25 02:23:56;;;;;;;;;3.67;3.67;;;;;16.24;100.00;101764.03;5074073;27;68168;-74
2023/09/25 02:26:22;;;;;;;;;5.67;3.00;;;;;16.24;100.00;101768.44;5075034;27;62033;-76
2023/09/25 02:28:47;;;;;;;;;3.00;3.00;;;;;16.25;100.00;101770.25;5075731;27;63274;-74
2023/09/25 02:31:13;;;;;;;;;2.00;2.00;;;;;16.26;100.00;101763.13;5074985;27;45426;-73
2023/09/25 02:33:39;;;;;;;;;3.00;3.00;;;;;16.21;100.00;101763.13;5076666;27;45303;-74
2023/09/25 02:36:09;;;;;;;;;6.67;3.00;;;;;16.23;100.00;101759.56;5074934;27;45494;-75
2023/09/25 02:38:35;;;;;;;;;4.00;4.00;;;;;16.20;100.00;101761.34;5071730;27;46841;-74
2023/09/25 02:41:00;;;;;;;;;4.00;4.00;;;;;16.24;100.00;101757.78;5070284;28;45596;-74
2023/09/25 02:43:25;;;;;;;;;3.00;3.00;;;;;16.22;100.00;101757.78;5076373;27;57290;-75
2023/09/25 02:45:51;;;;;;;;;5.33;3.00;;;;;16.23;100.00;101750.69;5075751;27;63767;-75
2023/09/25 02:48:17;;;;;;;;;3.67;3.67;;;;;16.22;100.00;101751.56;5077349;27;46595;-76
2023/09/25 02:50:42;;;;;;;;;5.67;4.00;;;;;16.18;100.00;101765.75;5075756;27;66914;-74
2023/09/25 02:53:07;;;;;;;;;6.00;4.00;;;;;16.19;100.00;101768.47;5069874;27;64381;-74
2023/09/25 02:55:33;;;;;;;;;3.00;3.00;;;;;16.16;100.00;101765.78;5070293;28;62325;-75
2023/09/25 02:57:59;;;;;;;;;3.67;3.33;;;;;16.18;100.00;101766.66;5077078;27;46532;-76
2023/09/25 03:00:25;;;;;;;;;4.67;3.00;;;;;16.16;100.00;101767.53;5071992;27;45606;-75
2023/09/25 03:02:50;;;;;;;;;3.00;3.00;;;;;16.17;100.00;101764.88;5067618;28;45326;-75
2023/09/25 03:05:16;;;;;;;;;4.00;4.00;;;;;16.22;100.00;101775.56;5073980;27;57204;-77
2023/09/25 03:07:41;;;;;;;;;5.00;4.00;;;;;16.22;100.00;101767.56;5075598;27;46459;-75
2023/09/25 03:10:07;;;;;;;;;5.00;3.33;;;;;16.24;100.00;101772.03;5069278;27;45321;-75
2023/09/25 03:12:33;;;;;;;;;5.00;3.00;;;;;16.09;100.00;101771.97;5073610;28;45319;-75
2023/09/25 03:14:58;;;;;;;;;8.00;5.00;;;;;16.09;100.00;101779.09;5075236;27;62286;-74
2023/09/25 03:17:24;;;;;;;;;3.67;3.67;;;;;16.12;100.00;101771.97;5072044;27;68214;-75
2023/09/25 03:19:52;;;;;;;;;4.33;3.67;;;;;16.12;100.00;101771.09;5075250;28;45406;-75
2023/09/25 03:22:18;;;;;;;;;6.00;4.67;;;;;16.11;100.00;101767.53;5077104;27;45544;-77
2023/09/25 03:24:43;;;;;;;;;4.67;4.67;;;;;16.05;100.00;101767.50;5075354;27;45377;-77
2023/09/25 03:27:09;;;;;;;;;4.00;4.00;;;;;16.11;100.00;101774.63;5075316;28;45526;-76
2023/09/25 03:29:34;;;;;;;;;3.00;3.00;;;;;16.00;100.00;101776.38;5070915;27;64590;-76
2023/09/25 03:31:59;;;;;;;;;4.00;4.00;;;;;15.97;100.00;101772.78;5065830;27;65172;-74
2023/09/25 03:34:25;;;;;;;;;5.33;4.00;;;;;16.01;100.00;101778.16;5073687;27;45581;-76
2023/09/25 03:36:50;;;;;;;;;3.00;3.00;;;;;15.94;100.00;101779.91;5073741;28;69054;-75
2023/09/25 03:39:17;;;;;;;;;8.00;4.33;;;;;15.82;100.00;101787.81;5067668;27;64437;-75
2023/09/25 03:41:42;;;;;;;;;4.00;3.67;;;;;15.77;100.00;101784.28;5069600;27;45589;-75
2023/09/25 03:44:08;;;;;;;;;5.00;2.67;;;;;15.76;100.00;101793.13;5069066;28;45415;-76
2023/09/25 03:46:33;;;;;;;;;6.00;4.33;;;;;15.78;100.00;101800.25;5075170;28;45772;-76
2023/09/25 03:49:05;;;;;;;;;6.00;3.00;;;;;15.77;100.00;101782.50;5075137;28;45408;-75
2023/09/25 03:51:31;;;;;;;;;4.00;4.00;;;;;15.77;100.00;101795.81;5076391;27;45322;-75
2023/09/25 03:53:56;;;;;;;;;7.00;4.00;;;;;15.74;100.00;101795.78;5076049;27;45445;-75
2023/09/25 03:56:21;;;;;;;;;3.00;3.00;;;;;15.80;100.00;101802.91;5075224;27;71331;-75
2023/09/25 03:58:47;;;;;;;;;5.33;5.00;;;;;15.85;100.00;101793.16;5068509;27;68834;-76
2023/09/25 04:01:12;;;;;;;;;4.33;4.33;;;;;15.89;100.00;101794.97;5070672;27;63829;-75
2023/09/25 04:03:37;;;;;;;;;3.67;3.67;;;;;15.89;100.00;101803.84;5074697;27;58776;-75
2023/09/25 04:06:03;;;;;;;;;6.00;3.67;;;;;15.90;100.00;101799.41;5074922;27;70064;-76
2023/09/25 04:08:28;;;;;;;;;4.00;4.00;;;;;15.83;100.00;101808.25;5075276;27;45484;-74
2023/09/25 04:10:53;;;;;;;;;6.00;4.00;;;;;15.80;100.00;101808.25;5075732;27;64477;-76
2023/09/25 04:13:22;;;;;;;;;5.00;4.00;;;;;15.81;100.00;101810.00;5075163;27;62413;-75
2023/09/25 04:15:47;;;;;;;;;9.00;5.67;;;;;15.76;100.00;101815.31;5074883;27;46302;-75
2023/09/25 04:18:13;;;;;;;;;6.67;3.67;;;;;15.75;100.00;101808.22;5072487;27;45338;-75
2023/09/25 04:20:38;;;;;;;;;4.00;4.00;;;;;15.83;100.00;101819.81;5074765;27;64517;-75
2023/09/25 04:23:03;;;;;;;;;4.67;4.67;;;;;15.75;100.00;101810.88;5075755;27;45559;-74
2023/09/25 04:25:29;;;;;;;;;5.00;4.00;;;;;15.79;100.00;101803.81;5075720;27;45673;-76
2023/09/25 04:27:55;;;;;;;;;5.00;4.00;;;;;15.73;100.00;101804.66;5075406;27;45505;-74
2023/09/25 04:30:24;;;;;;;;;6.00;3.33;;;;;15.77;100.00;101806.47;5070989;27;45459;-76
2023/09/25 04:32:53;;;;;;;;;3.00;3.00;;;;;15.75;100.00;101810.88;5075625;27;45472;-74
2023/09/25 04:35:20;;;;;;;;;5.67;3.33;;;;;15.81;100.00;101805.56;5075569;27;48390;-76
2023/09/25 04:37:45;;;;;;;;;6.00;3.33;;;;;15.79;100.00;101798.47;5074832;27;45566;-75
2023/09/25 04:40:22;;;;;;;;;4.00;4.00;;;;;15.76;100.00;101798.44;5075770;27;45615;-76
2023/09/25 04:42:49;;;;;;;;;4.00;4.00;;;;;15.76;100.00;101806.44;5074644;27;47134;-75
2023/09/25 04:45:18;;;;;;;;;5.33;5.00;;;;;15.75;100.00;101818.88;5072342;27;45507;-77
2023/09/25 04:47:43;;;;;;;;;4.33;3.33;;;;;15.72;100.00;101810.88;5075091;27;45440;-74
2023/09/25 04:50:10;;;;;;;;;3.67;3.67;;;;;15.69;100.00;101830.38;5078759;28;45199;-74
2023/09/25 04:52:36;;;;;;;;;4.33;4.33;;;;;15.68;100.00;101828.59;5079245;27;45494;-76
2023/09/25 04:55:10;;;;;;;;;4.33;3.00;;;;;15.66;100.00;101832.16;5078925;27;47475;-76
2023/09/25 04:57:36;;;;;;;;;3.00;3.00;;;;;15.62;100.00;101840.94;5078639;27;45501;-75
2023/09/25 05:00:12;;;;;;;;;6.00;5.00;;;;;15.62;100.00;101839.19;5072764;27;45259;-75
2023/09/25 05:02:37;;;;;;;;;4.00;4.00;;;;;15.61;100.00;101847.16;5077653;28;45476;-75
2023/09/25 05:05:03;;;;;;;;;4.00;4.00;;;;;15.60;100.00;101835.59;5076815;27;68326;-74
2023/09/25 05:07:28;;;;;;;;;4.00;4.00;;;;;15.55;100.00;101836.44;5078547;27;45428;-76
2023/09/25 05:09:53;;;;;;;;;6.33;5.00;;;;;15.54;100.00;101838.22;5067885;27;62826;-76
2023/09/25 05:12:19;;;;;;;;;5.00;4.00;;;;;15.60;100.00;101840.03;5073913;27;60784;-76
2023/09/25 05:14:44;;;;;;;;;4.33;4.00;;;;;15.55;100.00;101847.09;5071041;27;71119;-76
2023/09/25 05:17:09;;;;;;;;;5.67;4.00;;;;;15.53;100.00;101844.44;5076508;28;45404;-75
2023/09/25 05:19:35;;;;;;;;;4.00;4.00;;;;;15.53;100.00;101832.91;5074653;27;51017;-74
2023/09/25 05:22:01;;;;;;;;;7.67;5.33;;;;;15.50;100.00;101833.78;5072813;27;45399;-77
2023/09/25 05:24:26;;;;;;;;;6.00;6.00;;;;;15.49;100.00;101839.97;5074877;28;46209;-78
2023/09/25 05:26:51;;;;;;;;;10.33;6.33;;;;;15.47;100.00;101833.75;5070793;28;65151;-75
2023/09/25 05:29:17;;;;;;;;;7.00;6.00;;;;;15.50;100.00;101843.50;5071673;27;64743;-75
2023/09/25 05:31:42;;;;;;;;;6.33;3.67;;;;;15.48;100.00;101830.19;5069466;27;61600;-75
2023/09/25 05:34:07;;;;;;;;;6.00;6.00;;;;;15.50;100.00;101827.53;5072017;28;71902;-75
2023/09/25 05:36:33;;;;;;;;;11.33;7.33;;;;;15.48;100.00;101829.31;5077055;28;45307;-77
2023/09/25 05:38:58;;;;;;;;;7.33;5.67;;;;;15.50;100.00;101841.78;5072559;27;45270;-75
2023/09/25 05:41:23;;;;;;;;;8.00;6.33;;;;;15.52;100.00;101840.00;5073553;27;45587;-76
2023/09/25 05:43:49;;;;;;;;;9.33;7.00;;;;;15.51;100.00;101845.31;5072012;27;65660;-76
2023/09/25 05:46:14;;;;;;;;;8.00;6.33;;;;;15.53;100.00;101843.53;5072476;27;45818;-76
2023/09/25 05:48:40;;;;;;;;;3.00;2.00;;;;;15.51;100.00;101853.31;5075451;28;56325;-77
2023/09/25 05:51:05;;;;;;;;;11.00;7.00;;;;;15.53;100.00;101848.88;5075599;27;45634;-77
2023/09/25 05:53:30;;;;;;;;;6.67;6.67;;;;;15.48;100.00;101862.13;5076389;27;46452;-76
2023/09/25 05:55:56;;;;;;;;;12.00;8.00;;;;;15.51;100.00;101858.63;5075528;27;70226;-77
2023/09/25 05:58:21;;;;;;;;;6.00;6.00;;;;;15.55;100.00;101868.38;5076012;27;47068;-74
2023/09/25 06:00:47;;;;;;;;;8.33;6.67;;;;;15.60;100.00;101861.31;5076891;27;45448;-75
2023/09/25 06:03:13;;;;;;;;;6.00;6.00;;;;;15.64;100.00;101852.53;5072829;27;46491;-75
2023/09/25 06:05:38;;;;;;;;;7.00;5.67;;;;;15.65;100.00;101855.19;5072734;28;45422;-76
2023/09/25 06:08:05;;;;;;;;;9.67;8.00;;;;;15.68;100.00;101859.66;5076273;27;47692;-75
2023/09/25 06:10:31;;;;;;;;;6.00;6.00;;;;;15.70;100.00;101855.22;5074626;27;45484;-76
2023/09/25 06:12:57;;;;;;;;;5.33;4.00;;;;;15.75;100.00;101860.56;5072336;27;47814;-76
2023/09/25 06:15:24;;;;;;;;;8.00;6.00;;;;;15.76;100.00;101865.03;5070991;27;45301;-78
2023/09/25 06:17:49;;;;;;;;;9.33;7.00;;;;;15.77;100.00;101865.06;5071573;28;45622;-76
2023/09/25 06:20:15;;;;;;;;;6.00;6.00;;;;;15.81;100.00;101869.50;5062798;28;45548;-77
2023/09/25 06:22:43;;;;;;;;;7.00;6.33;;;;;15.86;100.00;101861.53;5058277;28;46153;-77
2023/09/25 06:25:11;;;;;;;;;5.00;4.33;;;;;15.87;100.00;101869.56;5069298;27;45467;-75
2023/09/25 06:27:37;;;;;;;;;5.00;5.00;;;;;15.88;100.00;101870.44;5070282;27;45535;-74
2023/09/25 06:30:02;;;;;;;;;7.00;5.67;;;;;15.86;100.00;101877.50;5073049;28;45847;-76
2023/09/25 06:32:27;;;;;;;;;6.00;5.33;;;;;15.85;100.00;101879.28;5071545;28;45664;-74
2023/09/25 06:34:53;;;;;;;;;4.00;4.00;;;;;15.90;100.00;101881.97;5068421;27;67271;-74
2023/09/25 06:37:18;;;;;;;;;5.00;5.00;;;;;16.02;100.00;101875.81;5066753;28;46006;-76
2023/09/25 06:39:44;;;;;;;;;5.00;5.00;;;;;16.14;100.00;101871.47;5063304;27;45597;-74
2023/09/25 06:42:09;;;;;;;;;9.00;6.00;;;;;16.28;100.00;101862.63;5065250;28;45945;-73
2023/09/25 06:44:34;;;;;;;;;5.00;5.00;;;;;16.42;100.00;101864.47;5063312;27;58205;-74
2023/09/25 06:47:00;;;;;;;;;5.00;5.00;;;;;16.55;100.00;101875.16;5066162;28;57097;-75
2023/09/25 06:49:25;;;;;;;;;5.33;4.00;;;;;16.64;100.00;101885.88;5066277;27;62696;-73
2023/09/25 06:51:50;;;;;;;;;7.67;5.00;;;;;16.77;100.00;101883.25;5070536;27;45752;-74
2023/09/25 06:54:16;;;;;;;;;6.67;5.00;;;;;16.83;100.00;101878.81;5071732;28;45518;-74
2023/09/25 06:56:41;;;;;;;;;9.00;6.00;;;;;16.96;100.00;101886.84;5072177;27;45492;-76
2023/09/25 06:59:06;;;;;;;;;4.00;4.00;;;;;16.97;100.00;101887.75;5072365;28;45678;-74
2023/09/25 07:01:32;;;;;;;;;8.00;5.67;;;;;17.15;100.00;101884.19;5069037;28;59428;-76
2023/09/25 07:03:57;;;;;;;;;5.67;4.33;;;;;17.23;100.00;101874.44;5070350;27;69917;-74
2023/09/25 07:06:23;;;;;;;;;5.33;5.33;;;;;17.35;100.00;101873.53;5073514;27;63656;-74
2023/09/25 07:08:48;;;;;;;;;6.67;6.00;;;;;17.48;100.00;101872.66;5069321;27;45383;-74
2023/09/25 07:11:17;;;;;;;;;6.00;6.00;;;;;17.63;100.00;101866.38;5070107;27;46463;-77
2023/09/25 07:13:42;;;;;;;;;6.00;4.67;;;;;17.74;100.00;101875.31;5070969;27;45442;-74
2023/09/25 07:16:08;;;;;;;;;4.67;3.00;;;;;17.79;100.00;101871.75;5072443;27;65136;-74
2023/09/25 07:18:34;;;;;;;;;7.33;6.00;;;;;17.78;100.00;101872.63;5069644;27;46782;-74
2023/09/25 07:21:00;;;;;;;;;5.00;2.00;;;;;17.89;100.00;101869.91;5073248;28;46614;-76
2023/09/25 07:23:25;;;;;;;;;5.00;4.00;;;;;17.99;100.00;101873.47;5070820;27;45395;-74
2023/09/25 07:26:02;;;;;;;;;6.33;4.33;;;;;18.07;100.00;101874.34;5069754;28;46084;-76
2023/09/25 07:28:27;;;;;;;;;7.00;5.00;;;;;17.99;100.00;101869.00;5070767;28;46959;-74
2023/09/25 07:30:54;;;;;;;;;8.00;6.00;;;;;18.03;100.00;101872.56;5069751;27;45982;-74
2023/09/25 07:33:19;;;;;;;;;6.33;4.00;;;;;18.08;100.00;101867.22;5072875;28;45495;-73
2023/09/25 07:35:45;;;;;;;;;7.00;4.33;;;;;18.12;100.00;101871.66;5070152;27;45758;-74
2023/09/25 07:38:10;;;;;;;;;5.33;5.33;;;;;18.19;100.00;101882.31;5065654;27;45671;-74
2023/09/25 07:40:35;;;;;;;;;6.00;4.00;;;;;18.22;100.00;101871.63;5069822;27;71251;-73
2023/09/25 07:43:01;;;;;;;;;7.00;4.00;;;;;18.27;100.00;101868.94;5066525;27;51258;-75
2023/09/25 07:45:26;;;;;;;;;6.00;5.67;;;;;18.36;100.00;101873.31;5060438;28;45405;-74
2023/09/25 07:47:54;;;;;;;;;3.67;3.67;;;;;18.43;100.00;101883.09;5067652;27;45624;-75
2023/09/25 07:50:22;;;;;;;;;7.00;7.00;;;;;18.46;100.00;101883.09;5065319;28;47399;-74
2023/09/25 07:52:48;;;;;;;;;7.67;6.00;;;;;18.55;100.00;101880.38;5068859;28;45632;-74
2023/09/25 07:55:14;;;;;;;;;8.33;7.00;;;;;18.60;100.00;101883.91;5066150;27;45485;-74
2023/09/25 07:57:40;;;;;;;;;6.00;6.00;;;;;18.69;100.00;101883.00;5069888;28;45925;-73
2023/09/25 08:00:30;;;;;;;;;10.33;6.67;;;;;18.79;100.00;101892.75;5066812;27;46561;-74
2023/09/25 08:02:56;;;;;;;;;8.00;6.67;;;;;18.94;100.00;101879.28;5070916;28;45537;-74
2023/09/25 08:05:22;;;;;;;;;9.00;5.67;;;;;19.01;100.00;101881.00;5066443;27;66712;-74
2023/09/25 08:07:51;;;;;;;;;7.33;5.67;;;;;19.16;100.00;101888.03;5069441;28;45527;-73
2023/09/25 08:10:17;;;;;;;;;7.00;6.00;;;;;19.31;100.00;101885.25;5069248;27;46640;-73
2023/09/25 08:12:43;;;;;;;;;6.00;5.00;;;;;19.44;100.00;101882.44;5066676;28;45483;-73
2023/09/25 08:15:09;;;;;;;;;6.67;5.00;;;;;19.54;100.00;101887.69;5175769;22;46283;-73
2023/09/25 08:17:34;;;;;;;;;4.00;4.00;;;;;19.63;100.00;101889.44;5066169;28;45444;-76
2023/09/25 08:20:00;;;;;;;;;5.33;5.00;;;;;19.69;100.00;101889.38;5066297;27;46380;-74
2023/09/25 08:22:26;;;;;;;;;6.67;5.00;;;;;19.89;100.00;101882.03;5071275;27;45514;-73
2023/09/25 08:24:51;;;;;;;;;5.67;5.00;;;;;19.93;100.00;101882.91;5070422;27;65697;-75
2023/09/25 08:27:18;;;;;;;;;6.00;6.00;;;;;19.95;100.00;101882.88;5071223;27;45462;-73
2023/09/25 08:29:45;;;;;;;;;6.00;4.67;;;;;20.02;100.00;101877.41;5077890;27;46452;-74
2023/09/25 08:32:11;;;;;;;;;6.33;5.67;;;;;20.09;100.00;101871.09;5076968;27;45476;-73
2023/09/25 08:34:36;;;;;;;;;7.33;6.00;;;;;20.14;100.00;101863.00;5065186;28;45489;-74
2023/09/25 08:37:01;;;;;;;;;6.67;5.00;;;;;20.12;100.00;101857.63;5077617;28;45890;-75
2023/09/25 08:39:27;;;;;;;;;10.00;8.00;;;;;20.18;100.00;101854.00;5078027;27;45725;-74
2023/09/25 08:41:53;;;;;;;;;6.00;4.67;;;;;20.22;100.00;101855.72;5076124;27;69476;-74
2023/09/25 08:44:18;;;;;;;;;9.67;4.67;;;;;20.26;100.00;101861.97;5077349;28;61880;-72
2023/09/25 08:46:44;;;;;;;;;6.00;6.00;;;;;20.38;100.00;101860.00;5077998;27;45323;-75
2023/09/25 08:49:10;;;;;;;;;7.00;4.67;;;;;20.31;100.00;101852.94;5073847;28;46546;-76
2023/09/25 08:51:38;;;;;;;;;3.00;2.00;;;;;20.35;100.00;101849.31;5077183;28;45813;-73
2023/09/25 08:54:04;;;;;;;;;8.00;5.00;;;;;20.32;100.00;101856.50;5076666;27;45435;-73
2023/09/25 08:56:31;;;;;;;;;5.00;5.00;;;;;20.30;100.00;101851.19;5074919;27;45513;-73
2023/09/25 08:58:59;;;;;;;;;5.00;5.00;;;;;20.30;100.00;101856.53;5072975;27;46506;-72
2023/09/25 09:01:24;;;;;;;;;6.67;5.67;;;;;20.41;100.00;101873.38;5078101;27;45527;-73
2023/09/25 09:03:50;;;;;;;;;6.33;4.67;;;;;20.51;100.00;101878.66;5075522;28;64380;-77
2023/09/25 09:06:15;;;;;;;;;8.33;5.33;;;;;20.60;100.00;101873.16;5077709;27;61559;-78
2023/09/25 09:08:46;;;;;;;;;7.00;6.00;;;;;20.77;100.00;101886.31;5075871;28;66114;-77
2023/09/25 09:11:13;;;;;;;;;6.67;6.00;;;;;20.94;100.00;101884.31;5078788;27;45413;-78
2023/09/25 09:13:42;;;;;;;;;6.00;6.00;;;;;21.07;100.00;101883.19;5073343;28;45475;-77
2023/09/25 09:16:13;;;;;;;;;5.00;5.00;;;;;21.19;100.00;101872.25;5077555;27;45516;-77
2023/09/25 09:18:38;;;;;;;;;7.67;7.00;;;;;21.24;100.00;101880.22;5073596;28;47535;-76
2023/09/25 09:21:03;;;;;;;;;5.33;5.33;;;;;21.33;100.00;101877.44;5077354;27;50520;-76
2023/09/25 09:23:42;;;;;;;;;7.00;5.33;;;;;21.48;100.00;101875.41;5076185;27;67561;-77
2023/09/25 09:26:10;;;;;;;;;10.67;9.00;;;;;21.59;100.00;101878.78;5075044;28;45780;-77
2023/09/25 09:28:36;;;;;;;;;7.00;5.00;;;;;21.66;100.00;101869.69;5076259;27;47041;-76
2023/09/25 09:31:02;;;;;;;;;5.67;4.00;;;;;21.78;100.00;101880.19;5077028;27;50819;-77
2023/09/25 09:33:31;;;;;;;;;4.67;4.00;;;;;21.88;100.00;101878.22;5074905;27;45502;-76
2023/09/25 09:35:56;;;;;;;;;6.33;6.33;;;;;21.93;100.00;101885.28;5074027;28;45816;-78
2023/09/25 09:38:22;;;;;;;;;7.00;5.67;;;;;21.93;100.00;101879.91;5074720;28;72062;-76
2023/09/25 09:40:49;;;;;;;;;5.67;4.33;;;;;21.99;100.00;101884.28;5076264;27;72021;-78
2023/09/25 09:43:15;;;;;;;;;5.00;5.00;;;;;21.94;100.00;101876.34;5075654;28;45493;-76
2023/09/25 09:45:41;;;;;;;;;6.67;6.00;;;;;21.83;100.00;101886.38;5075457;28;45539;-76
2023/09/25 09:48:07;;;;;;;;;5.00;4.00;;;;;21.82;100.00;101889.09;5073603;28;46801;-76
2023/09/25 09:50:33;;;;;;;;;5.33;5.33;;;;;21.76;100.00;101879.34;5072161;28;45564;-76
2023/09/25 09:52:59;;;;;;;;;10.00;4.67;;;;;21.76;100.00;101883.84;5076299;27;54775;-75
2023/09/25 09:55:28;;;;;;;;;7.67;4.33;;;;;21.70;100.00;101888.41;5076576;27;45668;-79
2023/09/25 09:57:54;;;;;;;;;7.00;5.67;;;;;21.74;100.00;101883.88;5058273;28;47993;-78
2023/09/25 10:00:20;;;;;;;;;3.33;3.00;;;;;21.74;100.00;101893.75;5075089;27;45439;-78
2023/09/25 10:02:47;;;;;;;;;8.67;7.33;;;;;21.70;100.00;101890.22;5075882;28;45461;-76
2023/09/25 10:05:17;;;;;;;;;10.00;6.00;;;;;21.76;100.00;101886.53;5075071;28;45719;-76
2023/09/25 10:08:10;;;;;;;;;9.33;7.00;;;;;21.79;100.00;101891.88;5076205;28;46826;-76
2023/09/25 10:10:43;;;;;;;;;17.33;13.00;;;;;21.85;100.00;101894.44;5075311;28;45494;-76
2023/09/25 10:13:24;;;;;;;;;7.00;7.00;;;;;21.88;100.00;101892.56;5075968;28;45516;-77
2023/09/25 10:16:00;;;;;;;;;7.00;5.33;;;;;21.89;100.00;101894.34;5075698;28;45587;-75
2023/09/25 10:18:26;;;;;;;;;6.67;6.00;;;;;21.90;100.00;101889.84;5074031;28;47218;-79
2023/09/25 10:21:00;;;;;;;;;5.00;5.00;;;;;21.90;100.00;101896.13;5071858;27;45459;-76
2023/09/25 10:23:25;;;;;;;;;6.00;5.00;;;;;21.95;100.00;101886.16;5076366;27;45414;-78
2023/09/25 10:26:02;;;;;;;;;7.00;6.00;;;;;22.02;100.00;101891.41;5075900;28;45529;-78
2023/09/25 10:28:34;;;;;;;;;7.67;6.33;;;;;22.07;100.00;101892.22;5076592;28;46617;-78
2023/09/25 10:31:01;;;;;;;;;10.67;6.00;;;;;22.14;100.00;101889.41;5073154;28;45521;-76
2023/09/25 10:33:28;;;;;;;;;6.00;4.00;;;;;22.22;100.00;101895.53;5072137;28;46303;-78
2023/09/25 10:36:04;;;;;;;;;7.33;6.67;;;;;22.26;100.00;101887.38;5073247;28;45567;-77
2023/09/25 10:38:32;;;;;;;;;7.00;7.00;;;;;22.28;100.00;101885.56;5069578;28;48883;-76
2023/09/25 10:41:02;;;;;;;;;6.67;5.00;;;;;22.36;100.00;101876.38;5075874;28;45419;-77
2023/09/25 10:43:28;;;;;;;;;7.00;6.00;;;;;22.39;100.00;101884.41;5072528;28;45499;-75
2023/09/25 10:45:54;;;;;;;;;7.33;4.33;;;;;22.52;100.00;101878.75;5073484;28;66293;-75
2023/09/25 10:48:19;;;;;;;;;5.00;5.00;;;;;;;;5076162;27;46140;-76
2023/09/25 10:50:45;;;;;;;;;6.67;5.00;;;;;22.75;100.00;101871.94;5076419;27;45520;-75
2023/09/25 10:53:11;;;;;;;;;9.00;5.00;;;;;22.92;100.00;101873.38;5075927;28;45478;-76
2023/09/25 10:55:37;;;;;;;;;12.67;7.00;;;;;23.11;100.00;101869.31;5076879;27;45587;-78
2023/09/25 10:58:04;;;;;;;;;7.00;4.33;;;;;23.17;100.00;101879.03;5075073;28;46651;-75
2023/09/25 11:00:32;;;;;;;;;6.00;6.00;;;;;23.19;100.00;101875.41;5075033;28;45537;-77
2023/09/25 11:02:58;;;;;;;;;4.67;3.00;;;;;23.17;100.00;101868.28;5074176;27;45503;-77
2023/09/25 11:05:23;;;;;;;;;5.00;5.00;;;;;23.14;100.00;101888.09;5076109;28;52137;-76
2023/09/25 11:07:49;;;;;;;;;6.33;4.00;;;;;23.13;100.00;101890.84;5074919;28;46394;-77
2023/09/25 11:10:14;;;;;;;;;5.67;4.00;;;;;23.18;100.00;101894.31;5075405;28;45365;-76
2023/09/25 11:12:40;;;;;;;;;5.00;5.00;;;;;23.19;100.00;101901.47;5075807;28;45285;-76